sensor_id;sensor_type;location;lat;lon;timestamp;pressure;altitude;pressure_sealevel;temperature;humidity
42169;BME280;27838;43.858;25.974;2022-12-18T00:01:17;101876.53;;;10.25;57.62
42169;BME280;27838;43.858;25.974;2022-12-18T00:03:44;101890.34;;;10.21;57.98
42169;BME280;27838;43.858;25.974;2022-12-18T00:06:11;101889.34;;;10.14;57.72
42169;BME280;27838;43.858;25.974;2022-12-18T00:08:39;101902.44;;;10.17;57.99
42169;BME280;27838;43.858;25.974;2022-12-18T00:11:07;101895.41;;;10.15;57.63
42169;BME280;27838;43.858;25.974;2022-12-18T00:13:34;101897.00;;;10.07;57.77
42169;BME280;27838;43.858;25.974;2022-12-18T00:16:07;101901.31;;;10.06;57.46
42169;BME280;27838;43.858;25.974;2022-12-18T00:18:34;101910.06;;;10.08;57.06
42169;BME280;27838;43.858;25.974;2022-12-18T00:21:03;101905.72;;;10.09;56.83
42169;BME280;27838;43.858;25.974;2022-12-18T00:23:31;101915.97;;;9.99;57.04
42169;BME280;27838;43.858;25.974;2022-12-18T00:26:03;101914.94;;;9.93;57.41
42169;BME280;27838;43.858;25.974;2022-12-18T00:28:30;101912.16;;;9.85;57.40
42169;BME280;27838;43.858;25.974;2022-12-18T00:31:05;101919.13;;;9.86;57.53
42169;BME280;27838;43.858;25.974;2022-12-18T00:33:32;101915.75;;;9.90;57.22
42169;BME280;27838;43.858;25.974;2022-12-18T00:36:29;101927.06;;;9.91;56.81
42169;BME280;27838;43.858;25.974;2022-12-18T00:38:57;101927.91;;;9.90;57.09
42169;BME280;27838;43.858;25.974;2022-12-18T00:41:25;101936.50;;;9.87;56.97
42169;BME280;27838;43.858;25.974;2022-12-18T00:44:11;101943.38;;;9.82;56.45
42169;BME280;27838;43.858;25.974;2022-12-18T00:46:38;101945.97;;;9.83;56.68
42169;BME280;27838;43.858;25.974;2022-12-18T00:49:05;101942.38;;;9.77;56.63
42169;BME280;27838;43.858;25.974;2022-12-18T00:51:32;101943.03;;;9.70;56.48
42169;BME280;27838;43.858;25.974;2022-12-18T00:53:58;101947.25;;;9.63;56.55
42169;BME280;27838;43.858;25.974;2022-12-18T00:56:25;101949.75;;;9.58;56.37
42169;BME280;27838;43.858;25.974;2022-12-18T00:58:51;101955.00;;;9.60;56.58
42169;BME280;27838;43.858;25.974;2022-12-18T01:01:18;101958.50;;;9.62;56.97
42169;BME280;27838;43.858;25.974;2022-12-18T01:03:45;101961.09;;;9.62;56.64
42169;BME280;27838;43.858;25.974;2022-12-18T01:06:13;101962.00;;;9.64;56.69
42169;BME280;27838;43.858;25.974;2022-12-18T01:08:40;101961.94;;;9.59;56.91
42169;BME280;27838;43.858;25.974;2022-12-18T01:11:08;101959.25;;;9.56;56.74
42169;BME280;27838;43.858;25.974;2022-12-18T01:13:35;101956.72;;;9.59;57.17
42169;BME280;27838;43.858;25.974;2022-12-18T01:16:02;101962.06;;;9.66;56.77
42169;BME280;27838;43.858;25.974;2022-12-18T01:18:29;101963.75;;;9.63;56.79
42169;BME280;27838;43.858;25.974;2022-12-18T01:20:56;101960.94;;;9.54;56.74
42169;BME280;27838;43.858;25.974;2022-12-18T01:23:22;101961.63;;;9.47;57.38
42169;BME280;27838;43.858;25.974;2022-12-18T01:25:49;101969.53;;;9.52;56.99
42169;BME280;27838;43.858;25.974;2022-12-18T01:28:15;101959.31;;;9.59;56.93
42169;BME280;27838;43.858;25.974;2022-12-18T01:30:42;101960.97;;;9.57;56.59
42169;BME280;27838;43.858;25.974;2022-12-18T01:33:08;101973.78;;;9.48;57.14
42169;BME280;27838;43.858;25.974;2022-12-18T01:35:40;101964.25;;;9.47;56.44
42169;BME280;27838;43.858;25.974;2022-12-18T01:38:07;101964.97;;;9.43;57.28
42169;BME280;27838;43.858;25.974;2022-12-18T01:40:34;101972.63;;;9.35;56.98
42169;BME280;27838;43.858;25.974;2022-12-18T01:43:01;101976.81;;;9.30;56.66
42169;BME280;27838;43.858;25.974;2022-12-18T01:45:30;101975.09;;;9.31;57.05
42169;BME280;27838;43.858;25.974;2022-12-18T01:48:01;101973.34;;;9.30;56.87
42169;BME280;27838;43.858;25.974;2022-12-18T01:50:36;101970.69;;;9.28;56.71
42169;BME280;27838;43.858;25.974;2022-12-18T01:53:14;101979.28;;;9.25;56.12
42169;BME280;27838;43.858;25.974;2022-12-18T01:55:45;101982.75;;;9.24;56.51
42169;BME280;27838;43.858;25.974;2022-12-18T01:58:13;101994.81;;;9.21;55.92
42169;BME280;27838;43.858;25.974;2022-12-18T02:00:39;101989.59;;;9.21;56.16
42169;BME280;27838;43.858;25.974;2022-12-18T02:03:06;101995.75;;;9.24;55.59
42169;BME280;27838;43.858;25.974;2022-12-18T02:05:54;101998.41;;;9.27;56.01
42169;BME280;27838;43.858;25.974;2022-12-18T02:08:26;102000.38;;;9.36;56.07
42169;BME280;27838;43.858;25.974;2022-12-18T02:14:44;101999.69;;;9.42;55.41
42169;BME280;27838;43.858;25.974;2022-12-18T02:27:18;101996.75;;;9.30;55.90
42169;BME280;27838;43.858;25.974;2022-12-18T02:29:55;102011.69;;;9.37;55.66
42169;BME280;27838;43.858;25.974;2022-12-18T02:32:32;102011.50;;;9.31;55.63
42169;BME280;27838;43.858;25.974;2022-12-18T02:35:02;102025.03;;;9.17;56.14
42169;BME280;27838;43.858;25.974;2022-12-18T02:37:31;102027.72;;;9.20;56.10
42169;BME280;27838;43.858;25.974;2022-12-18T02:40:00;102039.00;;;9.19;56.11
42169;BME280;27838;43.858;25.974;2022-12-18T02:42:28;102049.22;;;9.13;56.57
42169;BME280;27838;43.858;25.974;2022-12-18T02:44:55;102049.41;;;9.19;56.53
42169;BME280;27838;43.858;25.974;2022-12-18T02:47:24;102056.34;;;9.20;56.04
42169;BME280;27838;43.858;25.974;2022-12-18T02:58:20;102087.31;;;9.11;55.29
42169;BME280;27838;43.858;25.974;2022-12-18T03:00:58;102092.41;;;9.08;55.42
42169;BME280;27838;43.858;25.974;2022-12-18T03:03:33;102094.09;;;9.06;55.13
42169;BME280;27838;43.858;25.974;2022-12-18T03:06:07;102097.66;;;9.10;55.12
42169;BME280;27838;43.858;25.974;2022-12-18T03:08:47;102103.63;;;9.05;55.32
42169;BME280;27838;43.858;25.974;2022-12-18T03:11:16;102112.22;;;9.03;55.63
42169;BME280;27838;43.858;25.974;2022-12-18T03:14:03;102118.34;;;9.05;55.68
42169;BME280;27838;43.858;25.974;2022-12-18T03:16:34;102117.50;;;9.06;54.62
42169;BME280;27838;43.858;25.974;2022-12-18T03:19:06;102120.03;;;9.03;55.17
42169;BME280;27838;43.858;25.974;2022-12-18T03:21:39;102129.34;;;8.96;55.72
42169;BME280;27838;43.858;25.974;2022-12-18T03:24:09;102134.66;;;8.99;55.57
42169;BME280;27838;43.858;25.974;2022-12-18T03:26:40;102123.59;;;9.06;55.19
42169;BME280;27838;43.858;25.974;2022-12-18T03:29:12;102121.75;;;9.02;55.29
42169;BME280;27838;43.858;25.974;2022-12-18T03:31:42;102134.44;;;8.92;55.76
42169;BME280;27838;43.858;25.974;2022-12-18T03:34:16;102139.66;;;8.92;55.56
42169;BME280;27838;43.858;25.974;2022-12-18T03:36:45;102147.50;;;8.93;55.66
42169;BME280;27838;43.858;25.974;2022-12-18T03:39:12;102130.06;;;8.91;55.07
42169;BME280;27838;43.858;25.974;2022-12-18T03:42:07;102150.72;;;8.84;55.69
42169;BME280;27838;43.858;25.974;2022-12-18T03:45:09;102149.53;;;8.75;55.76
42169;BME280;27838;43.858;25.974;2022-12-18T03:47:45;102150.94;;;8.63;55.13
42169;BME280;27838;43.858;25.974;2022-12-18T03:50:23;102149.22;;;8.64;55.80
42169;BME280;27838;43.858;25.974;2022-12-18T03:55:28;102145.81;;;8.39;55.68
42169;BME280;27838;43.858;25.974;2022-12-18T03:57:57;102152.69;;;8.37;56.20
42169;BME280;27838;43.858;25.974;2022-12-18T04:00:24;102156.84;;;8.32;56.29
42169;BME280;27838;43.858;25.974;2022-12-18T04:02:53;102169.91;;;8.35;55.40
42169;BME280;27838;43.858;25.974;2022-12-18T04:05:21;102171.94;;;8.42;55.47
42169;BME280;27838;43.858;25.974;2022-12-18T04:07:49;102171.94;;;8.42;55.92
42169;BME280;27838;43.858;25.974;2022-12-18T04:10:18;102178.66;;;8.37;55.77
42169;BME280;27838;43.858;25.974;2022-12-18T04:12:44;102183.88;;;8.37;56.03
42169;BME280;27838;43.858;25.974;2022-12-18T04:15:12;102181.31;;;8.39;56.08
42169;BME280;27838;43.858;25.974;2022-12-18T04:17:45;102181.34;;;8.40;55.96
42169;BME280;27838;43.858;25.974;2022-12-18T04:20:13;102187.38;;;8.39;55.32
42169;BME280;27838;43.858;25.974;2022-12-18T04:22:39;102194.47;;;8.43;54.99
42169;BME280;27838;43.858;25.974;2022-12-18T04:25:06;102190.31;;;8.48;55.01
42169;BME280;27838;43.858;25.974;2022-12-18T04:27:33;102191.34;;;8.54;54.81
42169;BME280;27838;43.858;25.974;2022-12-18T04:29:59;102199.53;;;8.66;55.03
42169;BME280;27838;43.858;25.974;2022-12-18T04:32:26;102217.78;;;8.67;54.56
42169;BME280;27838;43.858;25.974;2022-12-18T04:34:52;102209.81;;;8.63;54.27
42169;BME280;27838;43.858;25.974;2022-12-18T04:37:19;102215.00;;;8.63;54.76
42169;BME280;27838;43.858;25.974;2022-12-18T04:39:45;102218.41;;;8.60;54.87
42169;BME280;27838;43.858;25.974;2022-12-18T04:42:12;102228.00;;;8.63;54.61
42169;BME280;27838;43.858;25.974;2022-12-18T04:44:38;102216.78;;;8.64;54.06
42169;BME280;27838;43.858;25.974;2022-12-18T04:47:05;102234.28;;;8.69;54.41
42169;BME280;27838;43.858;25.974;2022-12-18T04:49:31;102240.38;;;8.70;54.15
42169;BME280;27838;43.858;25.974;2022-12-18T04:51:58;102246.47;;;8.71;54.09
42169;BME280;27838;43.858;25.974;2022-12-18T04:54:24;102243.59;;;8.63;53.89
42169;BME280;27838;43.858;25.974;2022-12-18T04:56:51;102249.34;;;8.53;55.04
42169;BME280;27838;43.858;25.974;2022-12-18T04:59:17;102256.06;;;8.46;54.83
42169;BME280;27838;43.858;25.974;2022-12-18T05:01:44;102264.63;;;8.43;54.77
42169;BME280;27838;43.858;25.974;2022-12-18T05:04:10;102274.94;;;8.42;54.73
42169;BME280;27838;43.858;25.974;2022-12-18T05:06:37;102282.47;;;8.34;54.69
42169;BME280;27838;43.858;25.974;2022-12-18T05:09:04;102285.75;;;8.28;54.59
42169;BME280;27838;43.858;25.974;2022-12-18T05:11:30;102291.94;;;8.32;55.02
42169;BME280;27838;43.858;25.974;2022-12-18T05:13:57;102291.84;;;8.29;55.15
42169;BME280;27838;43.858;25.974;2022-12-18T05:16:23;102300.56;;;8.31;54.57
42169;BME280;27838;43.858;25.974;2022-12-18T05:18:50;102299.63;;;8.29;54.38
42169;BME280;27838;43.858;25.974;2022-12-18T05:21:16;102301.53;;;8.35;54.28
42169;BME280;27838;43.858;25.974;2022-12-18T05:23:43;102317.44;;;8.42;54.21
42169;BME280;27838;43.858;25.974;2022-12-18T05:26:14;102309.72;;;8.45;54.27
42169;BME280;27838;43.858;25.974;2022-12-18T05:28:41;102300.91;;;8.42;53.77
42169;BME280;27838;43.858;25.974;2022-12-18T05:31:09;102308.56;;;8.37;53.76
42169;BME280;27838;43.858;25.974;2022-12-18T05:33:36;102308.47;;;8.34;54.54
42169;BME280;27838;43.858;25.974;2022-12-18T05:36:05;102310.13;;;8.32;54.19
42169;BME280;27838;43.858;25.974;2022-12-18T05:38:34;102320.34;;;8.27;54.37
42169;BME280;27838;43.858;25.974;2022-12-18T05:41:01;102329.03;;;8.28;54.35
42169;BME280;27838;43.858;25.974;2022-12-18T05:43:28;102331.63;;;8.28;54.26
42169;BME280;27838;43.858;25.974;2022-12-18T05:45:55;102340.69;;;8.39;54.46
42169;BME280;27838;43.858;25.974;2022-12-18T05:48:23;102337.25;;;8.40;54.12
42169;BME280;27838;43.858;25.974;2022-12-18T05:50:50;102336.31;;;8.38;54.18
42169;BME280;27838;43.858;25.974;2022-12-18T05:53:19;102334.22;;;8.28;54.28
42169;BME280;27838;43.858;25.974;2022-12-18T05:55:47;102333.91;;;8.19;54.84
42169;BME280;27838;43.858;25.974;2022-12-18T05:58:14;102339.75;;;8.13;54.46
42169;BME280;27838;43.858;25.974;2022-12-18T06:00:44;102346.69;;;8.12;54.87
42169;BME280;27838;43.858;25.974;2022-12-18T06:03:11;102358.16;;;8.19;54.26
42169;BME280;27838;43.858;25.974;2022-12-18T06:05:41;102366.00;;;8.21;54.15
42169;BME280;27838;43.858;25.974;2022-12-18T06:08:08;102367.72;;;8.20;53.84
42169;BME280;27838;43.858;25.974;2022-12-18T06:10:35;102378.06;;;8.19;54.19
42169;BME280;27838;43.858;25.974;2022-12-18T06:13:02;102378.88;;;8.18;54.42
42169;BME280;27838;43.858;25.974;2022-12-18T06:15:29;102387.63;;;8.20;54.21
42169;BME280;27838;43.858;25.974;2022-12-18T06:17:56;102385.97;;;8.22;54.53
42169;BME280;27838;43.858;25.974;2022-12-18T06:20:22;102382.44;;;8.20;54.82
42169;BME280;27838;43.858;25.974;2022-12-18T06:22:49;102383.78;;;8.10;55.10
42169;BME280;27838;43.858;25.974;2022-12-18T06:25:15;102398.31;;;8.05;55.01
42169;BME280;27838;43.858;25.974;2022-12-18T06:27:42;102411.19;;;8.02;55.07
42169;BME280;27838;43.858;25.974;2022-12-18T06:30:09;102412.19;;;8.05;54.70
42169;BME280;27838;43.858;25.974;2022-12-18T06:32:36;102422.88;;;8.13;54.93
42169;BME280;27838;43.858;25.974;2022-12-18T06:35:03;102416.91;;;8.16;54.26
42169;BME280;27838;43.858;25.974;2022-12-18T06:37:31;102416.19;;;8.20;54.59
42169;BME280;27838;43.858;25.974;2022-12-18T06:39:57;102413.06;;;8.28;54.66
42169;BME280;27838;43.858;25.974;2022-12-18T06:42:24;102419.88;;;8.26;54.21
42169;BME280;27838;43.858;25.974;2022-12-18T06:44:51;102436.50;;;8.30;54.64
42169;BME280;27838;43.858;25.974;2022-12-18T06:47:18;102428.72;;;8.30;54.48
42169;BME280;27838;43.858;25.974;2022-12-18T06:49:45;102445.00;;;8.26;54.31
42169;BME280;27838;43.858;25.974;2022-12-18T06:52:11;102444.94;;;8.24;54.18
42169;BME280;27838;43.858;25.974;2022-12-18T06:54:38;102445.00;;;8.26;54.23
42169;BME280;27838;43.858;25.974;2022-12-18T06:57:04;102453.72;;;8.28;54.26
42169;BME280;27838;43.858;25.974;2022-12-18T06:59:31;102453.97;;;8.34;54.36
42169;BME280;27838;43.858;25.974;2022-12-18T07:01:57;102466.34;;;8.41;53.72
42169;BME280;27838;43.858;25.974;2022-12-18T07:04:28;102466.44;;;8.43;53.64
42169;BME280;27838;43.858;25.974;2022-12-18T07:06:55;102466.34;;;8.41;53.40
42169;BME280;27838;43.858;25.974;2022-12-18T07:09:22;102477.16;;;8.29;54.05
42169;BME280;27838;43.858;25.974;2022-12-18T07:11:49;102483.97;;;8.26;54.18
42169;BME280;27838;43.858;25.974;2022-12-18T07:14:15;102492.00;;;8.32;53.69
42169;BME280;27838;43.858;25.974;2022-12-18T07:16:42;102492.06;;;8.34;54.25
42169;BME280;27838;43.858;25.974;2022-12-18T07:19:08;102497.19;;;8.32;53.62
42169;BME280;27838;43.858;25.974;2022-12-18T07:21:35;102500.31;;;8.23;54.08
42169;BME280;27838;43.858;25.974;2022-12-18T07:24:01;102505.47;;;8.22;54.00
42169;BME280;27838;43.858;25.974;2022-12-18T07:26:28;102507.34;;;8.26;53.99
42169;BME280;27838;43.858;25.974;2022-12-18T07:28:57;102509.34;;;8.33;54.32
42169;BME280;27838;43.858;25.974;2022-12-18T07:31:24;102504.19;;;8.35;54.01
42169;BME280;27838;43.858;25.974;2022-12-18T07:33:51;102512.19;;;8.39;53.35
42169;BME280;27838;43.858;25.974;2022-12-18T07:36:18;102512.25;;;8.41;53.80
42169;BME280;27838;43.858;25.974;2022-12-18T07:38:47;102514.53;;;8.33;53.72
42169;BME280;27838;43.858;25.974;2022-12-18T07:41:14;102519.09;;;8.39;53.30
42169;BME280;27838;43.858;25.974;2022-12-18T07:43:41;102518.31;;;8.41;53.51
42169;BME280;27838;43.858;25.974;2022-12-18T07:46:08;102523.66;;;8.44;53.23
42169;BME280;27838;43.858;25.974;2022-12-18T07:48:35;102513.00;;;8.38;53.76
42169;BME280;27838;43.858;25.974;2022-12-18T07:51:04;102532.34;;;8.45;53.81
42169;BME280;27838;43.858;25.974;2022-12-18T07:53:32;102538.59;;;8.50;53.76
42169;BME280;27838;43.858;25.974;2022-12-18T07:56:00;102536.28;;;8.58;53.62
42169;BME280;27838;43.858;25.974;2022-12-18T07:58:28;102536.50;;;8.64;53.25
42169;BME280;27838;43.858;25.974;2022-12-18T08:00:54;102547.13;;;8.70;53.98
42169;BME280;27838;43.858;25.974;2022-12-18T08:03:28;102552.28;;;8.68;53.21
42169;BME280;27838;43.858;25.974;2022-12-18T08:05:59;102547.09;;;8.68;53.57
42169;BME280;27838;43.858;25.974;2022-12-18T08:08:25;102549.91;;;8.75;53.13
42169;BME280;27838;43.858;25.974;2022-12-18T08:10:52;102550.78;;;8.75;53.48
42169;BME280;27838;43.858;25.974;2022-12-18T08:13:18;102549.78;;;8.72;53.63
42169;BME280;27838;43.858;25.974;2022-12-18T08:15:45;102548.19;;;8.75;53.39
42169;BME280;27838;43.858;25.974;2022-12-18T08:18:11;102557.88;;;8.79;53.26
42169;BME280;27838;43.858;25.974;2022-12-18T08:20:38;102554.66;;;8.86;53.14
42169;BME280;27838;43.858;25.974;2022-12-18T08:23:04;102560.00;;;8.90;52.23
42169;BME280;27838;43.858;25.974;2022-12-18T08:25:31;102555.56;;;8.87;52.44
42169;BME280;27838;43.858;25.974;2022-12-18T08:27:57;102568.72;;;8.92;52.98
42169;BME280;27838;43.858;25.974;2022-12-18T08:30:24;102569.44;;;8.87;52.70
42169;BME280;27838;43.858;25.974;2022-12-18T08:32:53;102570.16;;;8.83;52.77
42169;BME280;27838;43.858;25.974;2022-12-18T08:35:20;102571.94;;;8.84;53.02
42169;BME280;27838;43.858;25.974;2022-12-18T08:37:46;102570.34;;;8.88;52.58
42169;BME280;27838;43.858;25.974;2022-12-18T08:40:13;102571.53;;;8.98;52.70
42169;BME280;27838;43.858;25.974;2022-12-18T08:42:39;102574.13;;;8.98;52.09
42169;BME280;27838;43.858;25.974;2022-12-18T08:45:29;102572.88;;;8.86;51.64
42169;BME280;27838;43.858;25.974;2022-12-18T08:47:55;102573.69;;;8.85;52.20
42169;BME280;27838;43.858;25.974;2022-12-18T08:50:22;102581.50;;;8.85;52.60
42169;BME280;27838;43.858;25.974;2022-12-18T08:52:48;102567.81;;;8.91;51.84
42169;BME280;27838;43.858;25.974;2022-12-18T08:55:15;102574.59;;;8.86;52.12
42169;BME280;27838;43.858;25.974;2022-12-18T08:57:41;102563.91;;;8.78;52.21
42169;BME280;27838;43.858;25.974;2022-12-18T09:00:08;102567.09;;;8.71;51.83
42169;BME280;27838;43.858;25.974;2022-12-18T09:02:35;102568.97;;;8.75;52.07
42169;BME280;27838;43.858;25.974;2022-12-18T09:05:01;102566.63;;;8.81;52.49
42169;BME280;27838;43.858;25.974;2022-12-18T09:07:28;102568.28;;;8.79;52.14
42169;BME280;27838;43.858;25.974;2022-12-18T09:09:54;102582.97;;;8.79;51.96
42169;BME280;27838;43.858;25.974;2022-12-18T09:12:21;102580.22;;;8.74;52.25
42169;BME280;27838;43.858;25.974;2022-12-18T09:14:47;102576.91;;;8.78;51.77
42169;BME280;27838;43.858;25.974;2022-12-18T09:17:14;102593.50;;;8.82;52.04
42169;BME280;27838;43.858;25.974;2022-12-18T09:19:41;102592.88;;;8.89;52.25
42169;BME280;27838;43.858;25.974;2022-12-18T09:22:08;102591.22;;;8.91;52.01
42169;BME280;27838;43.858;25.974;2022-12-18T09:24:35;102593.06;;;8.94;51.60
42169;BME280;27838;43.858;25.974;2022-12-18T09:27:02;102589.75;;;8.98;51.55
42169;BME280;27838;43.858;25.974;2022-12-18T09:29:28;102588.19;;;9.03;52.19
42169;BME280;27838;43.858;25.974;2022-12-18T09:31:55;102582.88;;;9.00;51.16
42169;BME280;27838;43.858;25.974;2022-12-18T09:34:21;102584.59;;;8.99;51.58
42169;BME280;27838;43.858;25.974;2022-12-18T09:36:48;102584.91;;;9.07;51.49
42169;BME280;27838;43.858;25.974;2022-12-18T09:39:15;102578.03;;;9.09;51.74
42169;BME280;27838;43.858;25.974;2022-12-18T09:41:45;102579.84;;;9.12;52.25
42169;BME280;27838;43.858;25.974;2022-12-18T09:44:30;102570.34;;;9.12;51.58
42169;BME280;27838;43.858;25.974;2022-12-18T09:47:05;102576.34;;;9.11;51.58
42169;BME280;27838;43.858;25.974;2022-12-18T09:49:39;102579.13;;;9.16;51.17
42169;BME280;27838;43.858;25.974;2022-12-18T09:52:25;102580.69;;;9.11;50.90
42169;BME280;27838;43.858;25.974;2022-12-18T09:55:05;102577.19;;;9.10;51.46
42169;BME280;27838;43.858;25.974;2022-12-18T09:57:40;102574.56;;;9.10;51.25
42169;BME280;27838;43.858;25.974;2022-12-18T10:00:19;102571.91;;;9.08;51.18
42169;BME280;27838;43.858;25.974;2022-12-18T10:02:46;102581.75;;;9.16;50.95
42169;BME280;27838;43.858;25.974;2022-12-18T10:05:16;102585.38;;;9.21;51.26
42169;BME280;27838;43.858;25.974;2022-12-18T10:13:07;102585.03;;;9.36;50.52
42169;BME280;27838;43.858;25.974;2022-12-18T10:18:36;102588.72;;;9.42;50.42
42169;BME280;27838;43.858;25.974;2022-12-18T10:21:13;102589.50;;;9.40;50.56
42169;BME280;27838;43.858;25.974;2022-12-18T10:26:17;102599.31;;;9.47;50.64
42169;BME280;27838;43.858;25.974;2022-12-18T10:28:44;102602.09;;;9.53;50.77
42169;BME280;27838;43.858;25.974;2022-12-18T10:31:17;102608.19;;;9.54;50.12
42169;BME280;27838;43.858;25.974;2022-12-18T10:33:45;102606.44;;;9.53;50.05
42169;BME280;27838;43.858;25.974;2022-12-18T10:36:11;102605.66;;;9.55;50.16
42169;BME280;27838;43.858;25.974;2022-12-18T10:38:38;102611.78;;;9.57;50.06
42169;BME280;27838;43.858;25.974;2022-12-18T10:43:37;102609.19;;;9.57;49.91
42169;BME280;27838;43.858;25.974;2022-12-18T10:48:50;102606.50;;;9.54;50.28
42169;BME280;27838;43.858;25.974;2022-12-18T10:51:27;102611.66;;;9.53;50.08
42169;BME280;27838;43.858;25.974;2022-12-18T10:54:01;102629.25;;;9.36;50.54
42169;BME280;27838;43.858;25.974;2022-12-18T10:56:30;102621.41;;;9.34;50.84
42169;BME280;27838;43.858;25.974;2022-12-18T10:59:05;102625.63;;;9.31;50.50
42169;BME280;27838;43.858;25.974;2022-12-18T11:01:49;102624.75;;;9.30;51.78
42169;BME280;27838;43.858;25.974;2022-12-18T11:04:28;102627.47;;;9.33;51.67
42169;BME280;27838;43.858;25.974;2022-12-18T11:07:03;102627.59;;;9.38;51.10
42169;BME280;27838;43.858;25.974;2022-12-18T11:09:32;102637.31;;;9.42;51.30
42169;BME280;27838;43.858;25.974;2022-12-18T11:12:05;102630.44;;;9.44;50.75
42169;BME280;27838;43.858;25.974;2022-12-18T11:14:43;102630.13;;;9.36;50.59
42169;BME280;27838;43.858;25.974;2022-12-18T11:17:31;102633.16;;;9.23;50.98
42169;BME280;27838;43.858;25.974;2022-12-18T11:20:04;102637.38;;;9.19;50.95
42169;BME280;27838;43.858;25.974;2022-12-18T11:22:34;102634.91;;;9.24;50.98
42169;BME280;27838;43.858;25.974;2022-12-18T11:25:05;102641.16;;;9.29;51.05
42169;BME280;27838;43.858;25.974;2022-12-18T11:27:33;102646.66;;;9.37;50.90
42169;BME280;27838;43.858;25.974;2022-12-18T11:30:22;102646.75;;;9.40;50.29
42169;BME280;27838;43.858;25.974;2022-12-18T11:32:52;102646.88;;;9.43;50.42
42169;BME280;27838;43.858;25.974;2022-12-18T11:38:05;102650.63;;;9.51;50.35
42169;BME280;27838;43.858;25.974;2022-12-18T11:40:36;102641.03;;;9.50;50.50
42169;BME280;27838;43.858;25.974;2022-12-18T11:43:10;102641.03;;;9.50;49.90
42169;BME280;27838;43.858;25.974;2022-12-18T11:45:50;102641.22;;;9.55;49.93
42169;BME280;27838;43.858;25.974;2022-12-18T11:48:32;102644.69;;;9.55;49.90
42169;BME280;27838;43.858;25.974;2022-12-18T11:51:02;102641.91;;;9.49;49.57
42169;BME280;27838;43.858;25.974;2022-12-18T11:53:30;102650.94;;;9.60;49.77
42169;BME280;27838;43.858;25.974;2022-12-18T11:58:49;102652.31;;;9.75;49.19
42169;BME280;27838;43.858;25.974;2022-12-18T12:07:16;102653.56;;;9.86;48.76
42169;BME280;27838;43.858;25.974;2022-12-18T12:18:03;102652.31;;;10.00;48.82
42169;BME280;27838;43.858;25.974;2022-12-18T12:23:45;102656.88;;;10.08;48.65
42169;BME280;27838;43.858;25.974;2022-12-18T12:32:20;102654.50;;;10.14;48.34
42169;BME280;27838;43.858;25.974;2022-12-18T12:37:55;102660.34;;;10.07;48.48
42169;BME280;27838;43.858;25.974;2022-12-18T12:40:28;102657.63;;;10.04;48.49
42169;BME280;27838;43.858;25.974;2022-12-18T12:43:03;102656.69;;;10.01;48.21
42169;BME280;27838;43.858;25.974;2022-12-18T12:46:11;102673.38;;;10.07;48.35
42169;BME280;27838;43.858;25.974;2022-12-18T12:48:53;102671.47;;;10.02;48.42
42169;BME280;27838;43.858;25.974;2022-12-18T12:51:40;102667.94;;;10.00;48.73
42169;BME280;27838;43.858;25.974;2022-12-18T12:54:27;102669.31;;;9.89;49.08
42169;BME280;27838;43.858;25.974;2022-12-18T12:56:57;102672.72;;;9.88;49.23
42169;BME280;27838;43.858;25.974;2022-12-18T13:02:24;102674.53;;;9.89;48.76
42169;BME280;27838;43.858;25.974;2022-12-18T13:08:11;102682.81;;;10.03;48.59
42169;BME280;27838;43.858;25.974;2022-12-18T13:10:39;102680.97;;;10.00;48.52
42169;BME280;27838;43.858;25.974;2022-12-18T13:13:14;102682.59;;;9.97;48.42
42169;BME280;27838;43.858;25.974;2022-12-18T13:15:49;102699.00;;;9.94;48.70
42169;BME280;27838;43.858;25.974;2022-12-18T13:18:29;102697.13;;;9.90;48.64
42169;BME280;27838;43.858;25.974;2022-12-18T13:31:00;102722.72;;;9.78;49.20
42169;BME280;27838;43.858;25.974;2022-12-18T13:36:25;102737.66;;;9.82;49.69
42169;BME280;27838;43.858;25.974;2022-12-18T13:39:21;102741.03;;;9.79;49.56
42169;BME280;27838;43.858;25.974;2022-12-18T13:41:54;102739.34;;;9.81;49.07
42169;BME280;27838;43.858;25.974;2022-12-18T13:44:57;102741.34;;;9.89;49.40
42169;BME280;27838;43.858;25.974;2022-12-18T13:47:31;102741.56;;;9.95;49.20
42169;BME280;27838;43.858;25.974;2022-12-18T13:50:00;102751.09;;;9.94;49.03
42169;BME280;27838;43.858;25.974;2022-12-18T13:52:34;102752.75;;;9.92;49.19
42169;BME280;27838;43.858;25.974;2022-12-18T13:55:07;102757.88;;;9.89;49.41
42169;BME280;27838;43.858;25.974;2022-12-18T13:57:40;102757.03;;;9.90;49.16
42169;BME280;27838;43.858;25.974;2022-12-18T14:00:27;102756.97;;;9.89;49.45
42169;BME280;27838;43.858;25.974;2022-12-18T14:02:55;102773.59;;;9.92;49.37
42169;BME280;27838;43.858;25.974;2022-12-18T14:08:01;102787.53;;;9.93;49.65
42169;BME280;27838;43.858;25.974;2022-12-18T14:10:29;102792.66;;;9.91;49.59
42169;BME280;27838;43.858;25.974;2022-12-18T14:12:55;102790.13;;;9.93;49.63
42169;BME280;27838;43.858;25.974;2022-12-18T14:17:59;102790.00;;;9.90;49.70
42169;BME280;27838;43.858;25.974;2022-12-18T14:20:28;102790.00;;;9.90;49.53
42169;BME280;27838;43.858;25.974;2022-12-18T14:22:55;102783.06;;;9.90;50.00
42169;BME280;27838;43.858;25.974;2022-12-18T14:25:25;102784.78;;;9.90;49.68
42169;BME280;27838;43.858;25.974;2022-12-18T14:30:41;102791.81;;;9.92;49.43
42169;BME280;27838;43.858;25.974;2022-12-18T14:35:37;102799.75;;;9.95;49.44
42169;BME280;27838;43.858;25.974;2022-12-18T14:38:17;102808.63;;;10.00;49.35
42169;BME280;27838;43.858;25.974;2022-12-18T14:40:45;102812.06;;;9.99;48.98
42169;BME280;27838;43.858;25.974;2022-12-18T14:43:12;102816.50;;;10.02;49.38
42169;BME280;27838;43.858;25.974;2022-12-18T14:45:42;102817.31;;;10.01;49.50
42169;BME280;27838;43.858;25.974;2022-12-18T14:48:35;102819.03;;;10.00;49.65